createdAt,value
2023-03-23T15:58:26.193Z,15.66
2023-03-23T16:00:59.206Z,15.59
2023-03-23T16:03:35.929Z,15.57
2023-03-23T16:06:06.082Z,15.47
2023-03-23T16:08:40.866Z,15.28
2023-03-23T16:11:13.413Z,15.10
2023-03-23T16:13:43.691Z,14.98
2023-03-23T16:16:19.990Z,14.87
2023-03-23T16:18:49.875Z,14.87
2023-03-23T16:21:19.496Z,14.84
2023-03-23T16:23:49.290Z,14.80
2023-03-23T16:26:19.566Z,14.63
2023-03-23T16:28:49.586Z,14.56
2023-03-23T16:31:20.755Z,14.62
2023-03-23T16:33:50.396Z,14.53
2023-03-23T16:36:20.342Z,14.46
2023-03-23T16:38:52.462Z,14.43
2023-03-23T16:41:23.210Z,14.33
2023-03-23T16:43:52.890Z,14.30
2023-03-23T16:46:24.080Z,14.24
2023-03-23T16:48:53.726Z,14.18
2023-03-23T16:51:23.477Z,14.14
2023-03-23T16:53:53.270Z,14.08
2023-03-23T16:56:22.918Z,14.04
2023-03-23T16:58:52.501Z,13.97
2023-03-23T17:01:23.526Z,13.95
2023-03-23T17:03:54.393Z,13.94
2023-03-23T17:06:24.056Z,13.95
2023-03-23T17:08:53.620Z,14.01
2023-03-23T17:11:23.292Z,14.07
2023-03-23T17:13:52.898Z,14.11
2023-03-23T17:16:23.961Z,14.28
2023-03-23T17:18:53.634Z,14.36
2023-03-23T17:21:25.821Z,14.36
2023-03-23T17:23:55.583Z,14.35
2023-03-23T17:26:25.376Z,14.22
2023-03-23T17:28:55.025Z,14.19
2023-03-23T17:31:26.398Z,14.14
2023-03-23T17:33:57.557Z,14.03
2023-03-23T17:36:27.179Z,13.93
2023-03-23T17:38:56.948Z,13.89
2023-03-23T17:41:26.611Z,13.79
2023-03-23T17:43:56.214Z,13.83
2023-03-23T17:46:27.387Z,13.79
2023-03-23T17:48:57.060Z,13.75
2023-03-23T17:51:26.688Z,13.69
2023-03-23T17:53:56.270Z,13.64
2023-03-23T17:56:25.880Z,13.61
2023-03-23T17:58:55.780Z,13.54
2023-03-23T18:01:26.963Z,13.49
2023-03-23T18:03:56.733Z,13.44
2023-03-23T18:06:26.644Z,13.39
2023-03-23T18:08:56.669Z,13.33
2023-03-23T18:11:26.185Z,13.28
2023-03-23T18:13:56.765Z,13.25
2023-03-23T18:16:28.139Z,13.34
2023-03-23T18:18:57.760Z,13.42
2023-03-23T18:21:27.440Z,13.52
2023-03-23T18:23:59.602Z,13.53
2023-03-23T18:26:30.996Z,13.51
2023-03-23T18:29:00.531Z,13.42
2023-03-23T18:31:31.757Z,13.52
2023-03-23T18:34:01.615Z,13.56
2023-03-23T18:36:31.404Z,13.57
2023-03-23T18:39:01.012Z,13.50
2023-03-23T18:41:30.764Z,13.46
2023-03-23T18:44:00.387Z,13.42
2023-03-23T18:46:31.751Z,13.33
2023-03-23T18:49:01.597Z,13.30
2023-03-23T18:51:31.205Z,13.32
2023-03-23T18:54:00.754Z,13.31
2023-03-23T18:56:30.451Z,13.29
2023-03-23T18:59:00.050Z,13.25
2023-03-23T19:01:31.044Z,13.15
2023-03-23T19:04:00.583Z,13.14
2023-03-23T19:06:36.497Z,13.11
2023-03-23T19:09:06.241Z,13.11
2023-03-23T19:11:35.834Z,13.04
2023-03-23T19:14:05.776Z,13.02
2023-03-23T19:16:37.190Z,12.97
2023-03-23T19:19:08.992Z,12.96
2023-03-23T19:21:40.707Z,12.94
2023-03-23T19:24:11.187Z,12.88
2023-03-23T19:26:43.574Z,12.78
2023-03-23T19:31:50.704Z,12.66
2023-03-23T19:34:21.834Z,12.62
2023-03-23T19:36:56.395Z,12.59
2023-03-23T19:39:33.078Z,12.54
2023-03-23T19:42:04.296Z,12.52
2023-03-23T19:44:34.999Z,12.57
2023-03-23T19:47:07.216Z,12.51
2023-03-23T19:49:38.687Z,12.52
2023-03-23T19:52:12.514Z,12.47
2023-03-23T19:54:43.205Z,12.44
2023-03-23T19:57:12.906Z,12.41
2023-03-23T19:59:42.708Z,12.38
2023-03-23T20:02:14.986Z,12.37
2023-03-23T20:04:45.537Z,12.33
2023-03-23T20:07:15.774Z,12.30
2023-03-23T20:09:45.619Z,12.26
2023-03-23T20:12:16.166Z,12.28
2023-03-23T20:14:46.381Z,12.30
2023-03-23T20:17:17.397Z,12.29
2023-03-23T20:19:47.072Z,12.26
2023-03-23T20:22:17.655Z,12.27
2023-03-23T20:24:48.287Z,12.26
2023-03-23T20:27:19.056Z,12.29
2023-03-23T20:29:48.696Z,12.26
2023-03-23T20:32:19.702Z,12.23
2023-03-23T20:34:49.574Z,12.18
2023-03-23T20:37:20.866Z,12.17
2023-03-23T20:39:52.289Z,12.16
2023-03-23T20:42:22.239Z,12.18
2023-03-23T20:44:52.328Z,12.15
2023-03-23T20:47:23.396Z,12.13
2023-03-23T20:49:54.062Z,12.12
2023-03-23T20:52:25.972Z,12.14
2023-03-23T20:54:56.797Z,12.16
2023-03-23T20:57:26.292Z,12.20
2023-03-23T20:59:56.565Z,12.22
2023-03-23T21:02:29.930Z,12.22
2023-03-23T21:05:04.209Z,12.23
2023-03-23T21:07:34.213Z,12.25
2023-03-23T21:10:05.214Z,12.23
2023-03-23T21:12:34.801Z,12.30
2023-03-23T21:15:06.376Z,12.27
2023-03-23T21:17:37.389Z,12.22
2023-03-23T21:20:11.056Z,12.20
2023-03-23T21:22:40.971Z,12.17
2023-03-23T21:25:11.060Z,12.13
2023-03-23T21:27:40.739Z,12.10
2023-03-23T21:30:11.469Z,12.13
2023-03-23T21:32:42.441Z,12.13
2023-03-23T21:35:12.201Z,12.15
2023-03-23T21:37:42.127Z,12.12
2023-03-23T21:40:18.720Z,12.11
2023-03-23T21:42:51.000Z,12.11
2023-03-23T21:45:21.870Z,12.09
2023-03-23T21:47:56.802Z,12.08
2023-03-23T21:50:26.253Z,12.07
2023-03-23T21:52:55.704Z,12.05
2023-03-23T21:55:25.268Z,12.07
2023-03-23T21:57:54.743Z,12.07
2023-03-23T22:00:24.747Z,12.06
2023-03-23T22:02:56.003Z,12.06
2023-03-23T22:05:25.604Z,12.06
2023-03-23T22:07:55.325Z,12.03
2023-03-23T22:10:25.213Z,12.04
2023-03-23T22:12:55.677Z,12.01
2023-03-23T22:15:27.894Z,12.00
2023-03-23T22:17:59.059Z,11.99
2023-03-23T22:20:29.411Z,11.97
2023-03-23T22:22:59.023Z,11.96
2023-03-23T22:25:28.668Z,11.95
2023-03-23T22:27:58.319Z,11.90
2023-03-23T22:30:29.703Z,11.86
2023-03-23T22:33:01.805Z,11.83
2023-03-23T22:35:33.638Z,11.81
2023-03-23T22:38:03.423Z,11.80
2023-03-23T22:40:33.437Z,11.80
2023-03-23T22:43:03.534Z,11.81
2023-03-23T22:45:33.209Z,11.78
2023-03-23T22:48:08.245Z,11.77
2023-03-23T22:50:45.210Z,11.75
2023-03-23T22:53:20.615Z,11.75
2023-03-23T22:55:58.026Z,11.72
2023-03-23T22:58:39.641Z,11.70
2023-03-23T23:01:19.472Z,11.65
2023-03-23T23:03:52.078Z,11.66
2023-03-23T23:06:28.080Z,11.61
2023-03-23T23:08:58.776Z,11.63
2023-03-23T23:11:30.222Z,11.60
2023-03-23T23:14:02.175Z,11.58
2023-03-23T23:16:34.024Z,11.56
2023-03-23T23:19:06.760Z,11.56
2023-03-23T23:21:38.048Z,11.58
2023-03-23T23:24:14.495Z,11.55
2023-03-23T23:26:52.028Z,11.54
2023-03-23T23:29:22.493Z,11.56
2023-03-23T23:31:52.201Z,11.54
2023-03-23T23:34:23.444Z,11.56
2023-03-23T23:36:53.573Z,11.57
2023-03-23T23:39:32.085Z,11.58
2023-03-23T23:42:02.327Z,11.58
2023-03-23T23:44:32.144Z,11.59
2023-03-23T23:47:02.376Z,11.62
2023-03-23T23:49:34.276Z,11.62
2023-03-23T23:52:04.277Z,11.64
2023-03-23T23:54:37.559Z,11.67
2023-03-23T23:57:07.446Z,11.69
2023-03-23T23:59:37.363Z,11.71
